TimePDT,TemperatureF,Dew PointF,Humidity,Sea Level PressureIn,VisibilityMPH,Wind Direction,Wind SpeedMPH,Gust SpeedMPH,PrecipitationIn,Events,Conditions,WindDirDegrees,DateUTC
12:56 AM,44.1,12.0,27,30.14,10.0,NW,9.2,-,N/A,,Clear,310,2012-10-03 07:56:00
1:39 AM,44.6,21.2,39,30.21,5.0,NW,11.5,-,N/A,,Haze,310,2012-10-03 08:39:00
1:56 AM,45.0,21.0,39,30.17,5.0,NW,9.2,-,N/A,,Haze,320,2012-10-03 08:56:00
2:56 AM,44.1,15.1,31,30.19,9.0,NW,10.4,-,N/A,,Overcast,320,2012-10-03 09:56:00
3:41 AM,42.8,14.0,31,30.25,10.0,NW,10.4,-,N/A,,Overcast,320,2012-10-03 10:41:00
3:56 AM,42.1,12.9,31,30.21,10.0,NW,9.2,-,N/A,,Overcast,320,2012-10-03 10:56:00
4:56 AM,41.0,10.9,29,30.24,10.0,NW,11.5,-,N/A,,Mostly Cloudy,320,2012-10-03 11:56:00
5:56 AM,37.9,12.0,35,30.27,10.0,NW,8.1,-,N/A,,Clear,310,2012-10-03 12:56:00
6:56 AM,36.0,12.9,39,30.30,10.0,WNW,5.8,-,N/A,,Clear,300,2012-10-03 13:56:00
8:56 AM,42.1,15.1,34,30.35,10.0,NW,6.9,-,N/A,,Clear,310,2012-10-03 15:56:00
9:56 AM,45.0,14.0,29,30.35,10.0,NNW,3.5,-,N/A,,Clear,330,2012-10-03 16:56:00
10:56 AM,48.0,12.0,24,30.36,10.0,Calm,Calm,-,N/A,,Clear,0,2012-10-03 17:56:00
11:56 AM,52.0,12.9,21,30.33,10.0,North,8.1,-,N/A,,Clear,360,2012-10-03 18:56:00
12:56 PM,54.0,12.9,20,30.30,10.0,North,8.1,-,N/A,,Clear,350,2012-10-03 19:56:00
1:56 PM,55.9,14.0,19,30.27,10.0,WNW,12.7,-,N/A,,Clear,300,2012-10-03 20:56:00
2:56 PM,59.0,14.0,17,30.24,10.0,NW,12.7,21.9,N/A,,Clear,320,2012-10-03 21:56:00
3:56 PM,59.0,14.0,17,30.23,10.0,NW,15.0,-,N/A,,Clear,320,2012-10-03 22:56:00
4:56 PM,57.9,16.0,19,30.22,10.0,NNW,12.7,19.6,N/A,,Clear,340,2012-10-03 23:56:00
5:56 PM,54.0,17.1,23,30.23,10.0,NNW,16.1,-,N/A,,Clear,330,2012-10-04 00:56:00
6:56 PM,50.0,19.9,31,30.25,10.0,NW,10.4,-,N/A,,Clear,320,2012-10-04 01:56:00
7:56 PM,46.9,23.0,39,30.25,10.0,NW,11.5,-,N/A,,Clear,320,2012-10-04 02:56:00
8:56 PM,45.0,23.0,42,30.26,10.0,NW,9.2,-,N/A,,Clear,310,2012-10-04 03:56:00
9:56 PM,43.0,21.9,43,30.27,10.0,NW,10.4,-,N/A,,Clear,320,2012-10-04 04:56:00
10:56 PM,41.0,23.0,49,30.27,10.0,WNW,4.6,-,N/A,,Clear,300,2012-10-04 05:56:00
11:56 PM,37.9,23.0,55,30.27,10.0,West,5.8,-,N/A,,Clear,280,2012-10-04 06:56:00